Terminal Aerodrome Forecast
Issued by NWS

Home | Current Version | Previous Version | Text Only | Print | Product List | Glossary On
Versions: 1 2 3 4 5 6 7 8 9 10 11 12 13 14 15 16 17 18 19
000
FTUS43 KIND 281100
TAFHUF
TAF
KHUF 281137Z 2812/2912 18004KT P6SM BKN080
     FM281500 18010KT P6SM BKN080
     FM281800 17012G20KT P6SM BKN080
     FM282200 18009KT P6SM BKN200=

USA.gov is the U.S. government's official web portal to all federal, state and local government web resources and services.